createdAt,value
2023-03-14T00:01:08.151Z,98416.31
2023-03-14T00:05:10.472Z,98418.91
2023-03-14T00:09:11.809Z,98407.41
2023-03-14T00:13:13.193Z,98434.31
2023-03-14T00:17:14.644Z,98468.91
2023-03-14T00:21:16.702Z,98482.41
2023-03-14T00:25:18.223Z,98477.09
2023-03-14T00:29:19.610Z,98472.47
2023-03-14T00:33:21.212Z,98476.84
2023-03-14T00:37:22.727Z,98466.47
2023-03-14T00:41:24.795Z,98464.72
2023-03-14T00:45:26.185Z,98464.06
2023-03-14T00:49:27.610Z,98459.59
2023-03-14T00:53:28.969Z,98458.00
2023-03-14T00:57:30.400Z,98461.03
2023-03-14T01:01:31.874Z,98451.69
2023-03-14T01:05:33.517Z,98457.69
2023-03-14T01:09:34.810Z,98453.47
2023-03-14T01:13:36.977Z,98464.94
2023-03-14T01:17:41.326Z,98495.09
2023-03-14T01:21:42.714Z,98540.63
2023-03-14T01:25:44.023Z,98503.25
2023-03-14T01:29:45.363Z,98486.31
2023-03-14T01:33:47.315Z,98493.97
2023-03-14T01:37:48.627Z,98470.88
2023-03-14T01:41:49.982Z,98472.81
2023-03-14T01:46:06.565Z,98457.66
2023-03-14T01:50:12.853Z,98467.94
2023-03-14T01:54:26.421Z,98465.06
2023-03-14T01:58:30.972Z,98456.91
2023-03-14T02:02:33.026Z,98439.81
2023-03-14T02:06:50.840Z,98452.47
2023-03-14T02:10:52.320Z,98448.78
2023-03-14T02:14:53.770Z,98457.09
2023-03-14T02:18:55.090Z,98442.25
2023-03-14T02:22:56.848Z,98442.28
2023-03-14T02:27:21.012Z,98448.34
2023-03-14T02:31:23.383Z,98446.16
2023-03-14T02:35:38.544Z,98442.47
2023-03-14T02:39:45.325Z,98433.66
2023-03-14T02:43:46.733Z,98415.06
2023-03-14T02:47:55.127Z,98415.97
2023-03-14T02:51:56.468Z,98420.66
2023-03-14T02:55:58.332Z,98413.75
2023-03-14T03:00:00.977Z,98404.09
2023-03-14T03:04:02.505Z,98403.94
2023-03-14T03:08:04.778Z,98402.69
2023-03-14T03:12:06.286Z,98389.66
2023-03-14T03:16:07.906Z,98389.47
2023-03-14T03:20:10.398Z,98395.38
2023-03-14T03:24:11.800Z,98388.06
2023-03-14T03:28:13.131Z,98372.31
2023-03-14T03:32:14.472Z,98378.06
2023-03-14T03:36:15.774Z,98372.53
2023-03-14T03:40:17.377Z,98373.34
2023-03-14T03:44:18.776Z,98373.38
2023-03-14T03:48:20.116Z,98371.25
2023-03-14T03:52:21.528Z,98374.38
2023-03-14T03:56:22.848Z,98368.63
2023-03-14T04:00:24.402Z,98376.28
2023-03-14T04:04:25.859Z,98369.00
2023-03-14T04:08:27.357Z,98367.63
2023-03-14T04:12:28.621Z,98372.88
2023-03-14T04:16:32.299Z,98361.97
2023-03-14T04:20:36.035Z,98363.38
2023-03-14T04:24:37.400Z,98356.19
2023-03-14T04:28:39.976Z,98358.03
2023-03-14T04:32:41.273Z,98362.53
2023-03-14T04:36:42.684Z,98356.81
2023-03-14T04:40:45.147Z,98364.19
2023-03-14T04:44:47.731Z,98350.53
2023-03-14T04:48:49.075Z,98351.78
2023-03-14T04:52:50.671Z,98340.94
2023-03-14T04:56:51.998Z,98326.31
2023-03-14T05:00:53.386Z,98315.88
2023-03-14T05:04:54.698Z,98310.00
2023-03-14T05:08:56.044Z,98309.56
2023-03-14T05:12:57.392Z,98302.28
2023-03-14T05:16:58.660Z,98290.25
2023-03-14T05:21:00.353Z,98300.66
2023-03-14T05:25:01.801Z,98291.03
2023-03-14T05:29:03.140Z,98284.50
2023-03-14T05:33:04.438Z,98283.31
2023-03-14T05:37:05.849Z,98281.69
2023-03-14T05:41:07.468Z,98285.34
2023-03-14T05:45:09.063Z,98290.03
2023-03-14T05:49:10.513Z,98287.78
2023-03-14T05:53:12.013Z,98288.41
2023-03-14T05:57:14.641Z,98281.69
2023-03-14T06:01:16.009Z,98284.97
2023-03-14T06:05:17.862Z,98283.50
2023-03-14T06:09:20.888Z,98277.00
2023-03-14T06:13:22.168Z,98268.63
2023-03-14T06:17:23.520Z,98271.56
2023-03-14T06:21:24.862Z,98271.78
2023-03-14T06:25:26.233Z,98274.03
2023-03-14T06:29:27.562Z,98266.41
2023-03-14T06:33:28.910Z,98268.59
2023-03-14T06:37:30.762Z,98269.63
2023-03-14T06:41:33.594Z,98274.00
2023-03-14T06:45:34.884Z,98266.91
2023-03-14T06:49:36.792Z,98266.59
2023-03-14T06:53:38.189Z,98271.91
2023-03-14T06:57:39.492Z,98265.97
2023-03-14T07:01:41.268Z,98270.91
2023-03-14T07:05:42.661Z,98264.72
2023-03-14T07:09:44.069Z,98270.91
2023-03-14T07:13:45.416Z,98272.41
2023-03-14T07:17:49.373Z,98272.78
2023-03-14T07:21:50.841Z,98287.72
2023-03-14T07:25:53.859Z,98286.72
2023-03-14T07:29:55.186Z,98298.22
2023-03-14T07:33:56.542Z,98296.16
2023-03-14T07:37:57.860Z,98300.31
2023-03-14T07:42:00.364Z,98300.03
2023-03-14T07:46:02.188Z,98310.00
2023-03-14T07:50:05.470Z,98312.38
2023-03-14T07:54:06.938Z,98309.81
2023-03-14T07:58:08.286Z,98313.50
2023-03-14T08:02:12.891Z,98327.16
2023-03-14T08:06:14.350Z,98321.00
2023-03-14T08:10:24.901Z,98330.91
2023-03-14T08:14:26.414Z,98329.38
2023-03-14T08:18:27.936Z,98339.81
2023-03-14T08:22:29.263Z,98333.56
2023-03-14T08:26:30.566Z,98330.53
2023-03-14T08:30:31.999Z,98338.13
2023-03-14T08:34:34.231Z,98339.59
2023-03-14T08:38:35.636Z,98333.69
2023-03-14T08:42:41.084Z,98338.47
2023-03-14T08:46:42.457Z,98343.63
2023-03-14T08:50:44.667Z,98346.72
2023-03-14T08:54:46.403Z,98350.00
2023-03-14T08:58:48.897Z,98352.66
2023-03-14T09:02:51.075Z,98369.28
2023-03-14T09:06:52.508Z,98387.06
2023-03-14T09:10:53.927Z,98392.94
2023-03-14T09:14:55.416Z,98402.00
2023-03-14T09:19:00.484Z,98406.69
2023-03-14T09:23:01.836Z,98407.78
2023-03-14T09:27:03.465Z,98418.91
2023-03-14T09:31:09.131Z,98422.78
2023-03-14T09:35:10.845Z,98427.44
2023-03-14T09:39:12.777Z,98470.41
2023-03-14T09:43:15.904Z,98527.28
2023-03-14T09:47:20.760Z,98544.50
2023-03-14T09:51:25.138Z,98557.25
2023-03-14T09:55:26.792Z,98583.03
2023-03-14T09:59:30.142Z,98594.31
2023-03-14T10:03:36.339Z,98619.22
2023-03-14T10:07:39.158Z,98630.63
2023-03-14T10:11:40.642Z,98655.06
2023-03-14T10:15:42.124Z,98667.66
2023-03-14T10:19:52.538Z,98682.59
2023-03-14T10:23:54.354Z,98692.63
2023-03-14T10:27:55.771Z,98713.31
2023-03-14T10:32:02.639Z,98728.97
2023-03-14T10:36:17.713Z,98749.94
2023-03-14T10:40:21.467Z,98768.69
2023-03-14T10:44:26.548Z,98781.19
2023-03-14T10:48:34.529Z,98790.75
2023-03-14T10:52:51.263Z,98800.69
2023-03-14T10:57:04.670Z,98809.06
2023-03-14T11:01:09.145Z,98825.44
2023-03-14T11:05:25.113Z,98839.28
2023-03-14T11:09:37.049Z,98839.63
2023-03-14T11:13:49.346Z,98849.31
2023-03-14T11:18:17.299Z,98843.78
2023-03-14T11:22:25.086Z,98853.13
2023-03-14T11:26:31.845Z,98876.09
2023-03-14T11:30:43.400Z,98876.44
2023-03-14T11:34:52.946Z,98891.50
2023-03-14T11:38:58.058Z,98889.66
2023-03-14T11:43:22.769Z,98957.19
2023-03-14T11:47:33.235Z,98968.28
2023-03-14T11:51:40.356Z,98971.25
2023-03-14T11:55:43.586Z,98989.16
2023-03-14T11:59:58.974Z,98991.47
2023-03-14T12:04:12.906Z,99007.28
2023-03-14T12:08:33.831Z,99011.25
2023-03-14T12:12:36.080Z,99036.13
2023-03-14T12:16:41.347Z,99047.91
2023-03-14T12:20:53.701Z,99060.00
2023-03-14T12:25:13.792Z,99089.44
2023-03-14T12:29:18.524Z,99097.38
2023-03-14T12:33:19.764Z,99127.63
2023-03-14T12:37:35.161Z,99143.81
2023-03-14T12:41:45.536Z,99154.50
2023-03-14T12:46:20.758Z,99159.44
2023-03-14T12:50:27.782Z,99177.41
2023-03-14T12:55:07.834Z,99187.63
2023-03-14T12:59:29.322Z,99205.28
2023-03-14T13:03:45.986Z,99215.50
2023-03-14T13:07:47.285Z,99224.56
2023-03-14T13:11:48.704Z,99239.22
2023-03-14T13:15:58.807Z,99246.78
2023-03-14T13:20:06.510Z,99263.59
2023-03-14T13:24:29.095Z,99272.72
2023-03-14T13:28:32.079Z,99290.28
2023-03-14T13:32:33.505Z,99286.53
2023-03-14T13:36:37.385Z,99289.69
2023-03-14T13:40:39.200Z,99297.94
2023-03-14T13:44:40.998Z,99326.19
2023-03-14T13:48:56.216Z,99346.38
2023-03-14T13:52:58.661Z,99359.75
2023-03-14T13:57:05.794Z,99361.34
2023-03-14T14:01:23.987Z,99369.28
2023-03-14T14:05:30.581Z,99383.00
2023-03-14T14:09:38.514Z,99397.94
2023-03-14T14:13:40.005Z,99400.06
2023-03-14T14:17:45.478Z,99420.22
2023-03-14T14:21:47.130Z,99424.31
2023-03-14T14:25:50.166Z,99431.75
2023-03-14T14:30:02.053Z,99446.13
2023-03-14T14:34:04.925Z,99461.31
2023-03-14T14:38:16.985Z,99470.38
2023-03-14T14:42:24.220Z,99481.94
2023-03-14T14:46:28.966Z,99492.16
2023-03-14T14:50:37.761Z,99500.28
2023-03-14T14:54:45.432Z,99516.44
2023-03-14T14:58:48.146Z,99516.94
2023-03-14T15:02:55.207Z,99540.78
2023-03-14T15:06:56.859Z,99551.13
2023-03-14T15:10:59.612Z,99553.13
2023-03-14T15:15:01.128Z,99560.53
2023-03-14T15:19:23.696Z,99567.00
2023-03-14T15:23:26.437Z,99580.69
2023-03-14T15:27:31.101Z,99591.81
2023-03-14T15:31:32.459Z,99595.75
2023-03-14T15:35:33.809Z,99602.84
2023-03-14T15:39:35.821Z,99617.97
2023-03-14T15:43:37.134Z,99629.25
2023-03-14T15:47:38.531Z,99627.75
2023-03-14T15:51:39.859Z,99643.53
2023-03-14T15:55:41.231Z,99650.50
2023-03-14T15:59:42.631Z,99664.50
2023-03-14T16:03:45.824Z,99679.09
2023-03-14T16:07:47.658Z,99689.13
2023-03-14T16:11:49.049Z,99695.69
2023-03-14T16:16:01.462Z,99705.31
2023-03-14T16:20:04.743Z,99708.31
2023-03-14T16:24:07.070Z,99715.91
2023-03-14T16:28:11.097Z,99726.06
2023-03-14T16:32:13.834Z,99724.44
2023-03-14T16:36:15.702Z,99745.63
2023-03-14T16:40:17.119Z,99754.41
2023-03-14T16:44:18.463Z,99760.78
2023-03-14T16:48:20.728Z,99771.31
2023-03-14T16:52:22.003Z,99787.34
2023-03-14T16:56:23.620Z,99798.00
2023-03-14T17:00:25.102Z,99812.88
2023-03-14T17:04:26.527Z,99816.06
2023-03-14T17:08:28.007Z,99828.78
2023-03-14T17:12:29.325Z,99830.06
2023-03-14T17:16:31.335Z,99849.22
2023-03-14T17:20:32.937Z,99860.47
2023-03-14T17:24:34.248Z,99862.44
2023-03-14T17:28:36.021Z,99878.22
2023-03-14T17:32:37.389Z,99899.34
2023-03-14T17:36:38.692Z,99897.38
2023-03-14T17:40:40.119Z,99907.22
2023-03-14T17:44:41.815Z,99924.44
2023-03-14T17:48:48.280Z,99936.84
2023-03-14T17:52:49.607Z,99949.44
2023-03-14T17:56:50.919Z,99963.06
2023-03-14T18:00:52.199Z,99976.66
2023-03-14T18:04:53.739Z,99985.13
2023-03-14T18:08:56.349Z,99998.69
2023-03-14T18:12:57.752Z,100000.13
2023-03-14T18:16:59.029Z,100015.16
2023-03-14T18:21:00.392Z,100025.97
2023-03-14T18:25:01.795Z,100029.03
2023-03-14T18:29:03.366Z,100032.31
2023-03-14T18:33:05.452Z,100052.81
2023-03-14T18:37:07.238Z,100075.56
2023-03-14T18:41:13.966Z,100084.84
2023-03-14T18:45:15.597Z,100100.94
2023-03-14T18:49:17.153Z,100104.75
2023-03-14T18:53:18.745Z,100133.34
2023-03-14T18:57:20.048Z,100122.63
2023-03-14T19:01:22.532Z,100132.00
2023-03-14T19:05:23.879Z,100146.38
2023-03-14T19:09:25.293Z,100151.84
2023-03-14T19:13:27.542Z,100148.66
2023-03-14T19:17:28.915Z,100160.88
2023-03-14T19:21:33.250Z,100163.44
2023-03-14T19:25:34.639Z,100163.66
2023-03-14T19:29:41.963Z,100167.63
2023-03-14T19:33:43.302Z,100182.38
2023-03-14T19:37:45.387Z,100189.53
2023-03-14T19:41:46.765Z,100200.75
2023-03-14T19:45:48.152Z,100207.00
2023-03-14T19:49:49.618Z,100207.00
2023-03-14T19:53:52.571Z,100224.34
2023-03-14T19:57:54.358Z,100239.16
2023-03-14T20:01:58.140Z,100239.34
2023-03-14T20:06:04.006Z,100243.09
2023-03-14T20:10:07.559Z,100250.81
2023-03-14T20:14:09.662Z,100260.22
2023-03-14T20:18:10.961Z,100269.03
2023-03-14T20:22:12.315Z,100277.84
2023-03-14T20:26:13.699Z,100291.44
2023-03-14T20:30:18.691Z,100285.81
2023-03-14T20:34:20.203Z,100298.50
2023-03-14T20:38:24.246Z,100305.78
2023-03-14T20:42:27.042Z,100307.09
2023-03-14T20:46:28.392Z,100307.63
2023-03-14T20:50:29.805Z,100316.81
2023-03-14T20:54:32.046Z,100320.44
2023-03-14T20:58:34.015Z,100323.41
2023-03-14T21:02:36.296Z,100322.53
2023-03-14T21:06:37.719Z,100335.66
2023-03-14T21:10:39.139Z,100334.19
2023-03-14T21:14:40.527Z,100343.56
2023-03-14T21:18:41.899Z,100348.25
2023-03-14T21:22:43.288Z,100353.47
2023-03-14T21:26:46.600Z,100354.81
2023-03-14T21:30:47.922Z,100365.19
2023-03-14T21:34:49.583Z,100359.34
2023-03-14T21:38:51.176Z,100363.28
2023-03-14T21:42:55.433Z,100367.69
2023-03-14T21:46:56.854Z,100372.84
2023-03-14T21:50:58.188Z,100380.50
2023-03-14T21:54:59.476Z,100385.84
2023-03-14T21:59:00.806Z,100386.53
2023-03-14T22:03:13.102Z,100392.22
2023-03-14T22:07:18.551Z,100396.84
2023-03-14T22:11:22.428Z,100402.47
2023-03-14T22:15:23.782Z,100398.53
2023-03-14T22:19:26.810Z,100405.59
2023-03-14T22:23:28.265Z,100402.25
2023-03-14T22:27:29.574Z,100405.03
2023-03-14T22:31:31.049Z,100418.78
2023-03-14T22:35:32.706Z,100418.09
2023-03-14T22:39:34.563Z,100422.78
2023-03-14T22:43:35.907Z,100420.06
2023-03-14T22:47:37.230Z,100435.47
2023-03-14T22:51:38.791Z,100436.19
2023-03-14T22:55:40.198Z,100425.19
2023-03-14T22:59:41.975Z,100439.16
2023-03-14T23:03:43.577Z,100444.50
2023-03-14T23:07:44.887Z,100455.75
2023-03-14T23:11:46.217Z,100447.53
2023-03-14T23:15:47.553Z,100453.59
2023-03-14T23:19:48.852Z,100460.47
2023-03-14T23:23:50.922Z,100466.09
2023-03-14T23:27:54.206Z,100469.66
2023-03-14T23:31:55.637Z,100458.38
2023-03-14T23:35:56.996Z,100476.72
2023-03-14T23:39:58.330Z,100486.16
2023-03-14T23:44:01.688Z,100479.31
2023-03-14T23:48:03.865Z,100480.72
2023-03-14T23:52:05.352Z,100481.13
2023-03-14T23:56:07.061Z,100480.13
